createdAt,value
2019-06-01T00:00:11.522Z,18.32
2019-06-01T00:01:07.502Z,18.29
2019-06-01T00:02:07.502Z,18.33
2019-06-01T00:03:07.479Z,18.29
2019-06-01T00:04:07.498Z,18.29
2019-06-01T00:05:07.480Z,18.17
2019-06-01T00:06:07.452Z,18.18
2019-06-01T00:07:07.464Z,18.18
2019-06-01T00:08:07.420Z,18.18
2019-06-01T00:09:07.435Z,18.12
2019-06-01T00:10:07.413Z,18.23
2019-06-01T00:11:07.407Z,18.14
2019-06-01T00:12:07.394Z,18.17
2019-06-01T00:13:07.367Z,18.25
2019-06-01T00:14:07.360Z,18.08
2019-06-01T00:15:07.365Z,18.08
2019-06-01T00:16:07.364Z,18.08
2019-06-01T00:17:07.332Z,18.07
2019-06-01T00:18:07.324Z,18.05
2019-06-01T00:19:07.340Z,18.05
2019-06-01T00:20:07.337Z,18.07
2019-06-01T00:21:07.279Z,18.05
2019-06-01T00:22:07.270Z,17.97
2019-06-01T00:23:07.273Z,17.97
2019-06-01T00:24:07.255Z,17.99
2019-06-01T00:25:07.277Z,18.00
2019-06-01T00:26:07.232Z,17.96
2019-06-01T00:27:07.215Z,17.90
2019-06-01T00:28:07.212Z,17.95
2019-06-01T00:29:07.211Z,17.95
2019-06-01T00:30:07.219Z,18.07
2019-06-01T00:31:07.173Z,18.00
2019-06-01T00:32:07.171Z,17.96
2019-06-01T00:33:07.154Z,17.92
2019-06-01T00:34:07.154Z,17.99
2019-06-01T00:35:07.162Z,17.90
2019-06-01T00:36:07.133Z,17.93
2019-06-01T00:37:07.110Z,17.93
2019-06-01T00:38:07.104Z,17.89
2019-06-01T00:39:07.085Z,17.96
2019-06-01T00:40:07.120Z,17.97
2019-06-01T00:41:07.094Z,17.86
2019-06-01T00:42:07.073Z,17.86
2019-06-01T00:43:07.049Z,17.86
2019-06-01T00:44:07.030Z,17.89
2019-06-01T00:45:07.040Z,17.87
2019-06-01T00:46:07.024Z,17.84
2019-06-01T00:47:07.025Z,17.82
2019-06-01T00:48:06.992Z,17.79
2019-06-01T00:49:06.979Z,17.84
2019-06-01T00:50:06.985Z,17.84
2019-06-01T00:51:06.958Z,17.81
2019-06-01T00:52:06.965Z,17.74
2019-06-01T00:53:06.964Z,17.78
2019-06-01T00:54:06.924Z,17.75
2019-06-01T00:55:06.941Z,17.77
2019-06-01T00:56:06.915Z,17.78
2019-06-01T00:57:06.897Z,17.78
2019-06-01T00:58:06.924Z,17.77
2019-06-01T00:59:06.912Z,17.68
2019-06-01T01:00:06.882Z,17.82
2019-06-01T01:01:06.862Z,17.78
2019-06-01T01:02:06.854Z,17.81
2019-06-01T01:03:06.834Z,17.74
2019-06-01T01:04:06.849Z,17.66
2019-06-01T01:05:06.830Z,17.66
2019-06-01T01:06:06.795Z,17.70
2019-06-01T01:07:06.793Z,17.68
2019-06-01T01:08:06.773Z,17.72
2019-06-01T01:09:06.830Z,17.64
2019-06-01T01:10:06.779Z,17.64
2019-06-01T01:11:06.754Z,17.64
2019-06-01T01:12:06.732Z,17.71
2019-06-01T01:13:06.723Z,17.70
2019-06-01T01:14:06.724Z,17.63
2019-06-01T01:15:06.755Z,17.59
2019-06-01T01:16:06.696Z,17.64
2019-06-01T01:17:06.683Z,17.58
2019-06-01T01:18:06.681Z,17.66
2019-06-01T01:19:06.658Z,17.66
2019-06-01T01:20:06.716Z,17.62
2019-06-01T01:21:06.655Z,17.55
2019-06-01T01:22:06.638Z,17.64
2019-06-01T01:23:06.614Z,17.56
2019-06-01T01:24:06.613Z,17.62
2019-06-01T01:25:06.590Z,17.63
2019-06-01T01:26:06.614Z,17.62
2019-06-01T01:27:06.595Z,17.64
2019-06-01T01:28:06.563Z,17.52
2019-06-01T01:29:06.546Z,17.58
2019-06-01T01:30:06.537Z,17.55
2019-06-01T01:31:13.837Z,17.55
2019-06-01T01:32:07.518Z,17.55
2019-06-01T01:33:06.502Z,17.58
2019-06-01T01:34:06.494Z,17.58
2019-06-01T01:35:06.480Z,17.62
2019-06-01T01:36:06.486Z,17.52
2019-06-01T01:37:06.459Z,17.55
2019-06-01T01:38:06.447Z,17.54
2019-06-01T01:39:06.449Z,17.52
2019-06-01T01:40:06.433Z,17.54
2019-06-01T01:41:06.437Z,17.51
2019-06-01T01:42:06.424Z,17.49
2019-06-01T01:43:06.409Z,17.48
2019-06-01T01:44:06.412Z,17.52
2019-06-01T01:45:06.396Z,17.52
2019-06-01T01:46:06.389Z,17.44
2019-06-01T01:47:06.366Z,17.37
2019-06-01T01:48:06.346Z,17.41
2019-06-01T01:49:06.337Z,17.37
2019-06-01T01:50:06.356Z,17.44
2019-06-01T01:51:06.332Z,17.51
2019-06-01T01:52:06.298Z,17.43
2019-06-01T01:53:06.288Z,17.40
2019-06-01T01:54:06.283Z,17.34
2019-06-01T01:55:06.277Z,17.40
2019-06-01T01:56:06.294Z,17.40
2019-06-01T01:57:07.237Z,17.44
2019-06-01T01:58:06.230Z,17.43
2019-06-01T01:59:06.220Z,17.41
2019-06-01T02:00:06.227Z,17.40
2019-06-01T02:01:21.454Z,17.40
2019-06-01T02:02:07.190Z,17.33
2019-06-01T02:03:06.176Z,17.40
2019-06-01T02:04:06.167Z,17.49
2019-06-01T02:05:06.163Z,17.36
2019-06-01T02:06:06.161Z,17.37
2019-06-01T02:07:06.150Z,17.37
2019-06-01T02:08:06.132Z,17.43
2019-06-01T02:09:06.109Z,17.34
2019-06-01T02:10:06.105Z,17.34
2019-06-01T02:11:06.108Z,17.36
2019-06-01T02:12:06.096Z,17.37
2019-06-01T02:13:06.080Z,17.33
2019-06-01T02:14:06.074Z,17.37
2019-06-01T02:15:06.056Z,17.31
2019-06-01T02:16:06.059Z,17.28
2019-06-01T02:17:06.033Z,17.33
2019-06-01T02:18:06.031Z,17.31
2019-06-01T02:19:06.008Z,17.31
2019-06-01T02:20:05.991Z,17.30
2019-06-01T02:21:06.022Z,17.30
2019-06-01T02:22:05.977Z,17.28
2019-06-01T02:23:05.977Z,17.26
2019-06-01T02:24:05.966Z,17.26
2019-06-01T02:25:05.957Z,17.22
2019-06-01T02:26:05.955Z,17.22
2019-06-01T02:27:05.921Z,17.21
2019-06-01T02:28:05.911Z,17.22
2019-06-01T02:29:05.902Z,17.25
2019-06-01T02:30:05.911Z,17.19
2019-06-01T02:31:05.916Z,17.18
2019-06-01T02:32:06.686Z,17.22
2019-06-01T02:33:05.860Z,17.19
2019-06-01T02:34:06.223Z,17.08
2019-06-01T02:35:05.853Z,17.16
2019-06-01T02:36:05.856Z,17.18
2019-06-01T02:37:05.826Z,17.15
2019-06-01T02:38:06.076Z,17.19
2019-06-01T02:39:05.787Z,17.03
2019-06-01T02:40:05.809Z,17.12
2019-06-01T02:41:05.882Z,17.06
2019-06-01T02:42:05.776Z,17.03
2019-06-01T02:43:06.773Z,17.06
2019-06-01T02:44:06.382Z,17.06
2019-06-01T02:45:05.923Z,17.01
2019-06-01T02:46:07.414Z,17.06
2019-06-01T02:47:06.339Z,17.12
2019-06-01T02:48:06.264Z,16.97
2019-06-01T02:49:06.288Z,17.00
2019-06-01T02:50:06.385Z,16.93
2019-06-01T02:51:05.657Z,16.98
2019-06-01T02:52:05.667Z,16.88
2019-06-01T02:53:05.816Z,17.00
2019-06-01T02:54:06.266Z,17.01
2019-06-01T02:55:06.455Z,17.00
2019-06-01T02:56:06.210Z,16.96
2019-06-01T02:57:06.218Z,16.94
2019-06-01T02:58:06.682Z,16.94
2019-06-01T02:59:06.771Z,16.86
2019-06-01T03:00:06.738Z,16.89
2019-06-01T03:01:06.921Z,16.82
2019-06-01T03:02:10.808Z,16.85
2019-06-01T03:03:06.950Z,16.83
2019-06-01T03:04:05.528Z,16.85
2019-06-01T03:05:05.618Z,16.85
2019-06-01T03:06:05.649Z,16.76
2019-06-01T03:07:07.084Z,16.81
2019-06-01T03:08:05.496Z,16.78
2019-06-01T03:09:06.688Z,16.76
2019-06-01T03:10:05.498Z,16.71
2019-06-01T03:11:05.985Z,16.67
2019-06-01T03:12:06.348Z,16.78
2019-06-01T03:13:06.203Z,16.73
2019-06-01T03:14:06.625Z,16.75
2019-06-01T03:15:06.475Z,16.79
2019-06-01T03:16:06.573Z,16.60
2019-06-01T03:17:05.910Z,16.68
2019-06-01T03:18:05.683Z,16.64
2019-06-01T03:19:05.970Z,16.70
2019-06-01T03:20:06.263Z,16.64
2019-06-01T03:21:06.355Z,16.66
2019-06-01T03:22:06.878Z,16.61
2019-06-01T03:23:05.757Z,16.70
2019-06-01T03:24:05.965Z,16.64
2019-06-01T03:25:05.928Z,16.64
2019-06-01T03:26:06.260Z,16.58
2019-06-01T03:27:06.325Z,16.66
2019-06-01T03:28:06.231Z,16.64
2019-06-01T03:29:07.140Z,16.53
2019-06-01T03:30:06.662Z,16.63
2019-06-01T03:31:06.378Z,16.56
2019-06-01T03:32:24.089Z,16.56
2019-06-01T03:33:08.618Z,16.60
2019-06-01T03:34:06.923Z,16.50
2019-06-01T03:35:05.185Z,16.49
2019-06-01T03:36:05.180Z,16.53
2019-06-01T03:37:05.160Z,16.52
2019-06-01T03:38:05.171Z,16.49
2019-06-01T03:39:06.087Z,16.48
2019-06-01T03:40:09.609Z,16.48
2019-06-01T03:41:06.190Z,16.43
2019-06-01T03:42:05.262Z,16.48
2019-06-01T03:43:05.102Z,16.46
2019-06-01T03:44:06.211Z,16.43
2019-06-01T03:45:05.538Z,16.50
2019-06-01T03:46:05.070Z,16.39
2019-06-01T03:47:05.660Z,16.41
2019-06-01T03:48:05.053Z,16.38
2019-06-01T03:49:05.755Z,16.45
2019-06-01T03:50:05.048Z,16.38
2019-06-01T03:51:05.680Z,16.43
2019-06-01T03:52:05.009Z,16.42
2019-06-01T03:53:05.813Z,16.38
2019-06-01T03:54:06.407Z,16.41
2019-06-01T03:55:05.888Z,16.35
2019-06-01T03:56:05.037Z,16.46
2019-06-01T03:57:05.347Z,16.38
2019-06-01T03:58:05.092Z,16.42
2019-06-01T03:59:05.154Z,16.45
2019-06-01T04:00:05.050Z,16.34
2019-06-01T04:01:05.218Z,16.48
2019-06-01T04:02:05.127Z,16.38
2019-06-01T04:03:05.086Z,16.38
2019-06-01T04:04:05.089Z,16.48
2019-06-01T04:05:05.631Z,16.45
2019-06-01T04:06:05.337Z,16.34
2019-06-01T04:07:06.195Z,16.46
2019-06-01T04:08:05.600Z,16.43
2019-06-01T04:09:05.585Z,16.48
2019-06-01T04:10:05.735Z,16.56
2019-06-01T04:11:05.649Z,16.49
2019-06-01T04:12:05.494Z,16.53
2019-06-01T04:13:05.592Z,16.53
2019-06-01T04:14:05.613Z,16.56
2019-06-01T04:15:10.227Z,16.57
2019-06-01T04:16:05.896Z,16.56
2019-06-01T04:17:06.020Z,16.56
2019-06-01T04:18:05.973Z,16.56
2019-06-01T04:19:05.896Z,16.53
2019-06-01T04:20:05.924Z,16.57
2019-06-01T04:21:05.921Z,16.56
2019-06-01T04:22:05.849Z,16.61
2019-06-01T04:23:06.094Z,16.60
2019-06-01T04:24:05.893Z,16.66
2019-06-01T04:25:05.944Z,16.61
2019-06-01T04:26:04.639Z,16.68
2019-06-01T04:27:04.641Z,16.67
2019-06-01T04:28:04.613Z,16.64
2019-06-01T04:29:04.912Z,16.71
2019-06-01T04:30:04.619Z,16.67
2019-06-01T04:31:04.671Z,16.70
2019-06-01T04:32:04.578Z,16.78
2019-06-01T04:33:04.962Z,16.79
2019-06-01T04:34:04.633Z,16.79
2019-06-01T04:35:04.972Z,16.85
2019-06-01T04:36:04.887Z,16.82
2019-06-01T04:37:05.194Z,16.93
2019-06-01T04:38:05.061Z,16.98
2019-06-01T04:39:05.304Z,16.96
2019-06-01T04:40:05.281Z,17.03
2019-06-01T04:41:05.680Z,16.97
2019-06-01T04:42:05.557Z,17.06
2019-06-01T04:43:05.643Z,17.04
2019-06-01T04:44:05.807Z,17.07
2019-06-01T04:45:04.453Z,17.23
2019-06-01T04:46:04.433Z,17.18
2019-06-01T04:47:04.453Z,17.30
2019-06-01T04:48:04.494Z,17.28
2019-06-01T04:49:04.442Z,17.33
2019-06-01T04:50:04.590Z,17.26
2019-06-01T04:51:04.598Z,17.46
2019-06-01T04:52:04.663Z,17.48
2019-06-01T04:53:04.692Z,17.56
2019-06-01T04:54:04.840Z,17.55
2019-06-01T04:55:05.199Z,17.54
2019-06-01T04:56:04.814Z,17.70
2019-06-01T04:57:04.777Z,17.62
2019-06-01T04:58:04.643Z,17.79
2019-06-01T04:59:04.900Z,17.75
2019-06-01T05:00:10.035Z,17.86
2019-06-01T05:01:05.258Z,17.93
2019-06-01T05:02:05.571Z,17.90
2019-06-01T05:03:06.796Z,17.93
2019-06-01T05:04:04.942Z,17.93
2019-06-01T05:05:04.877Z,17.93
2019-06-01T05:06:05.056Z,18.07
2019-06-01T05:07:05.049Z,18.17
2019-06-01T05:08:05.165Z,18.15
2019-06-01T05:09:05.200Z,18.23
2019-06-01T05:10:05.164Z,18.33
2019-06-01T05:11:06.577Z,18.35
2019-06-01T05:12:05.251Z,18.41
2019-06-01T05:13:05.301Z,18.41
2019-06-01T05:14:05.369Z,18.47
2019-06-01T05:15:04.113Z,18.58
2019-06-01T05:16:04.158Z,18.54
2019-06-01T05:17:04.091Z,18.55
2019-06-01T05:18:04.084Z,18.58
2019-06-01T05:19:04.076Z,18.67
2019-06-01T05:20:04.053Z,18.81
2019-06-01T05:21:04.075Z,18.81
2019-06-01T05:22:04.041Z,18.78
2019-06-01T05:23:04.069Z,18.90
2019-06-01T05:24:04.017Z,18.95
2019-06-01T05:25:04.020Z,19.02
2019-06-01T05:26:04.021Z,19.07
2019-06-01T05:27:03.990Z,19.04
2019-06-01T05:28:03.975Z,19.02
2019-06-01T05:29:03.955Z,18.99
2019-06-01T05:30:03.964Z,19.06
2019-06-01T05:31:03.964Z,19.06
2019-06-01T05:32:03.929Z,19.07
2019-06-01T05:33:03.927Z,19.00
2019-06-01T05:34:03.903Z,19.08
2019-06-01T05:35:03.895Z,19.04
2019-06-01T05:36:03.905Z,19.06
2019-06-01T05:37:03.878Z,19.06
2019-06-01T05:38:03.883Z,19.13
2019-06-01T05:39:03.865Z,19.07
2019-06-01T05:40:03.852Z,19.06
2019-06-01T05:41:03.855Z,19.04
2019-06-01T05:42:03.835Z,19.06
2019-06-01T05:43:03.813Z,19.07
2019-06-01T05:44:03.817Z,19.06
2019-06-01T05:45:03.801Z,19.11
2019-06-01T05:46:03.921Z,18.99
2019-06-01T05:47:03.784Z,19.10
2019-06-01T05:48:03.785Z,18.99
2019-06-01T05:49:03.745Z,19.00
2019-06-01T05:50:03.738Z,19.06
2019-06-01T05:51:03.745Z,19.06
2019-06-01T05:52:03.749Z,19.02
2019-06-01T05:53:03.709Z,19.19
2019-06-01T05:54:03.699Z,19.22
2019-06-01T05:55:03.684Z,19.31
2019-06-01T05:56:03.689Z,19.28
2019-06-01T05:57:03.661Z,19.36
2019-06-01T05:58:03.651Z,19.37
2019-06-01T05:59:03.648Z,19.43
2019-06-01T06:00:03.642Z,19.41
2019-06-01T06:01:03.640Z,19.41
2019-06-01T06:02:03.603Z,19.43
2019-06-01T06:03:03.597Z,19.37
2019-06-01T06:04:03.593Z,19.39
2019-06-01T06:05:12.541Z,19.44
2019-06-01T06:06:03.586Z,19.44
2019-06-01T06:07:03.555Z,19.47
2019-06-01T06:08:03.557Z,19.54
2019-06-01T06:09:03.531Z,19.46
2019-06-01T06:10:03.568Z,19.58
2019-06-01T06:11:03.525Z,19.47
2019-06-01T06:12:03.503Z,19.51
2019-06-01T06:13:03.499Z,19.59
2019-06-01T06:14:03.478Z,19.61
2019-06-01T06:15:03.486Z,19.56
2019-06-01T06:16:03.485Z,19.48
2019-06-01T06:17:03.521Z,19.46
2019-06-01T06:18:03.442Z,19.40
2019-06-01T06:19:03.429Z,19.40
2019-06-01T06:20:03.413Z,19.41
2019-06-01T06:21:03.431Z,19.47
2019-06-01T06:22:03.415Z,19.41
2019-06-01T06:23:03.386Z,19.44
2019-06-01T06:24:03.372Z,19.32
2019-06-01T06:25:03.391Z,19.40
2019-06-01T06:26:03.357Z,19.36
2019-06-01T06:27:03.362Z,19.40
2019-06-01T06:28:03.329Z,19.41
2019-06-01T06:29:03.340Z,19.40
2019-06-01T06:30:03.316Z,19.43
2019-06-01T06:31:03.305Z,19.58
2019-06-01T06:32:03.342Z,19.51
2019-06-01T06:33:03.277Z,19.55
2019-06-01T06:34:03.272Z,19.62
2019-06-01T06:35:03.255Z,19.59
2019-06-01T06:36:03.255Z,19.66
2019-06-01T06:37:03.293Z,19.69
2019-06-01T06:38:03.219Z,19.81
2019-06-01T06:39:04.762Z,19.86
2019-06-01T06:40:03.213Z,19.69
2019-06-01T06:41:03.203Z,19.73
2019-06-01T06:42:03.254Z,19.73
2019-06-01T06:43:03.173Z,19.68
2019-06-01T06:44:03.204Z,19.65
2019-06-01T06:45:03.801Z,19.77
2019-06-01T06:46:03.138Z,19.88
2019-06-01T06:47:03.146Z,19.86
2019-06-01T06:48:03.146Z,19.99
2019-06-01T06:49:03.108Z,19.95
2019-06-01T06:50:03.141Z,20.03
2019-06-01T06:51:03.085Z,20.10
2019-06-01T06:52:03.163Z,20.14
2019-06-01T06:53:03.065Z,20.14
2019-06-01T06:54:03.059Z,20.24
2019-06-01T06:55:03.043Z,20.21
2019-06-01T06:56:03.034Z,20.28
2019-06-01T06:57:03.048Z,20.21
2019-06-01T06:58:03.026Z,20.20
2019-06-01T06:59:03.007Z,20.24
2019-06-01T07:00:02.992Z,20.23
2019-06-01T07:01:02.974Z,20.23
2019-06-01T07:02:03.163Z,20.24
2019-06-01T07:03:02.973Z,20.23
2019-06-01T07:04:12.347Z,20.23
2019-06-01T07:05:03.969Z,20.33
2019-06-01T07:06:02.923Z,20.33
2019-06-01T07:07:02.962Z,20.33
2019-06-01T07:08:02.906Z,20.43
2019-06-01T07:09:02.935Z,20.50
2019-06-01T07:10:02.897Z,20.48
2019-06-01T07:11:02.904Z,20.51
2019-06-01T07:12:02.880Z,20.54
2019-06-01T07:13:02.878Z,20.50
2019-06-01T07:14:02.857Z,20.52
2019-06-01T07:15:02.848Z,20.69
2019-06-01T07:16:03.946Z,20.54
2019-06-01T07:17:02.841Z,20.59
2019-06-01T07:18:02.790Z,20.61
2019-06-01T07:19:02.799Z,20.59
2019-06-01T07:20:02.794Z,20.64
2019-06-01T07:21:02.767Z,20.57
2019-06-01T07:22:02.779Z,20.67
2019-06-01T07:23:02.764Z,20.66
2019-06-01T07:24:02.738Z,20.72
2019-06-01T07:25:02.720Z,20.67
2019-06-01T07:26:02.714Z,20.74
2019-06-01T07:27:02.754Z,20.74
2019-06-01T07:28:02.718Z,20.84
2019-06-01T07:29:02.730Z,20.87
2019-06-01T07:30:02.666Z,20.89
2019-06-01T07:31:02.649Z,20.85
2019-06-01T07:32:02.689Z,20.94
2019-06-01T07:33:02.729Z,20.97
2019-06-01T07:34:02.718Z,21.10
2019-06-01T07:35:02.677Z,21.14
2019-06-01T07:36:02.606Z,21.12
2019-06-01T07:37:02.588Z,21.09
2019-06-01T07:38:02.632Z,21.09
2019-06-01T07:39:02.573Z,21.14
2019-06-01T07:40:02.600Z,21.19
2019-06-01T07:41:02.544Z,21.24
2019-06-01T07:42:02.610Z,21.31
2019-06-01T07:43:02.627Z,21.31
2019-06-01T07:44:02.526Z,21.31
2019-06-01T07:45:02.547Z,21.24
2019-06-01T07:46:02.497Z,21.24
2019-06-01T07:47:02.491Z,21.25
2019-06-01T07:48:02.509Z,21.37
2019-06-01T07:49:02.470Z,21.43
2019-06-01T07:50:02.463Z,21.37
2019-06-01T07:51:02.447Z,21.37
2019-06-01T07:52:12.120Z,21.43
2019-06-01T07:53:03.710Z,21.40
2019-06-01T07:54:02.418Z,21.35
2019-06-01T07:55:02.405Z,21.49
2019-06-01T07:56:02.392Z,21.46
2019-06-01T07:57:02.434Z,21.44
2019-06-01T07:58:02.391Z,21.59
2019-06-01T07:59:02.369Z,21.61
2019-06-01T08:00:02.353Z,21.74
2019-06-01T08:01:02.350Z,21.75
2019-06-01T08:02:02.378Z,21.75
2019-06-01T08:03:02.353Z,21.77
2019-06-01T08:04:02.302Z,21.84
2019-06-01T08:05:02.302Z,21.82
2019-06-01T08:06:02.301Z,21.90
2019-06-01T08:07:02.351Z,21.82
2019-06-01T08:08:02.522Z,21.96
2019-06-01T08:09:02.248Z,21.94
2019-06-01T08:10:02.232Z,22.05
2019-06-01T08:11:02.235Z,21.96
2019-06-01T08:12:02.328Z,22.05
2019-06-01T08:13:02.214Z,22.02
2019-06-01T08:14:02.225Z,22.15
2019-06-01T08:15:02.212Z,22.22
2019-06-01T08:16:02.179Z,22.33
2019-06-01T08:17:02.166Z,22.31
2019-06-01T08:18:02.178Z,22.42
2019-06-01T08:19:02.159Z,22.35
2019-06-01T08:20:02.152Z,22.31
2019-06-01T08:21:02.120Z,22.24
2019-06-01T08:22:02.121Z,22.35
2019-06-01T08:23:02.130Z,22.35
2019-06-01T08:24:02.447Z,22.31
2019-06-01T08:25:02.089Z,22.45
2019-06-01T08:26:02.066Z,22.47
2019-06-01T08:27:02.059Z,22.39
2019-06-01T08:28:02.064Z,22.51
2019-06-01T08:29:02.034Z,22.46
2019-06-01T08:30:02.039Z,22.55
2019-06-01T08:31:02.085Z,22.62
2019-06-01T08:32:02.002Z,22.57
2019-06-01T08:33:02.044Z,22.51
2019-06-01T08:34:02.004Z,22.40
2019-06-01T08:35:08.689Z,22.54
2019-06-01T08:36:02.972Z,22.52
2019-06-01T08:37:01.967Z,22.60
2019-06-01T08:38:01.996Z,22.55
2019-06-01T08:39:02.022Z,22.64
2019-06-01T08:40:01.916Z,22.62
2019-06-01T08:41:01.912Z,22.67
2019-06-01T08:42:01.905Z,22.62
2019-06-01T08:43:01.914Z,22.67
2019-06-01T08:44:01.874Z,22.62
2019-06-01T08:45:01.871Z,22.72
2019-06-01T08:46:01.938Z,22.65
2019-06-01T08:47:01.841Z,22.72
2019-06-01T08:48:01.858Z,22.62
2019-06-01T08:49:01.914Z,22.62
2019-06-01T08:50:01.814Z,22.67
2019-06-01T08:51:01.877Z,22.64
2019-06-01T08:52:01.797Z,22.64
2019-06-01T08:53:01.860Z,22.68
2019-06-01T08:54:01.789Z,22.72
2019-06-01T08:55:01.791Z,22.62
2019-06-01T08:56:01.743Z,22.72
2019-06-01T08:57:01.755Z,22.70
2019-06-01T08:58:01.762Z,22.75
2019-06-01T08:59:01.750Z,22.67
2019-06-01T09:00:01.737Z,22.76
2019-06-01T09:01:01.698Z,22.62
2019-06-01T09:02:01.688Z,22.73
2019-06-01T09:03:01.680Z,22.73
2019-06-01T09:04:01.696Z,22.75
2019-06-01T09:05:01.664Z,22.61
2019-06-01T09:06:01.673Z,22.70
2019-06-01T09:07:01.665Z,22.67
2019-06-01T09:08:01.619Z,22.67
2019-06-01T09:09:03.232Z,22.65
2019-06-01T09:10:01.619Z,22.67
2019-06-01T09:11:01.602Z,22.67
2019-06-01T09:12:01.609Z,22.60
2019-06-01T09:13:01.632Z,22.75
2019-06-01T09:14:01.621Z,22.65
2019-06-01T09:15:01.562Z,22.72
2019-06-01T09:16:01.533Z,22.70
2019-06-01T09:17:01.538Z,22.80
2019-06-01T09:18:01.569Z,22.79
2019-06-01T09:19:01.542Z,22.92
2019-06-01T09:20:01.521Z,22.95
2019-06-01T09:21:01.520Z,22.94
2019-06-01T09:22:01.488Z,22.97
2019-06-01T09:23:01.476Z,23.10
2019-06-01T09:24:01.447Z,23.09
2019-06-01T09:25:01.478Z,23.15
2019-06-01T09:26:01.433Z,23.27
2019-06-01T09:27:11.357Z,23.35
2019-06-01T09:28:01.417Z,23.25
2019-06-01T09:29:01.416Z,23.23
2019-06-01T09:30:01.856Z,23.35
2019-06-01T09:31:01.368Z,23.40
2019-06-01T09:32:01.367Z,23.42
2019-06-01T09:33:01.436Z,23.50
2019-06-01T09:34:01.505Z,23.54
2019-06-01T09:35:01.468Z,23.61
2019-06-01T09:36:01.375Z,23.70
2019-06-01T09:37:01.307Z,23.69
2019-06-01T09:38:01.306Z,23.57
2019-06-01T09:39:01.357Z,23.61
2019-06-01T09:40:01.300Z,23.46
2019-06-01T09:41:01.357Z,23.39
2019-06-01T09:42:01.302Z,23.27
2019-06-01T09:43:01.331Z,23.31
2019-06-01T09:44:01.306Z,23.17
2019-06-01T09:45:01.235Z,23.28
2019-06-01T09:46:01.366Z,23.17
2019-06-01T09:47:01.231Z,23.27
2019-06-01T09:48:01.196Z,23.38
2019-06-01T09:49:01.206Z,23.38
2019-06-01T09:50:01.209Z,23.50
2019-06-01T09:51:01.342Z,23.60
2019-06-01T09:52:01.186Z,23.61
2019-06-01T09:53:01.177Z,23.60
2019-06-01T09:54:01.136Z,23.66
2019-06-01T09:55:01.135Z,23.68
2019-06-01T09:56:01.135Z,23.60
2019-06-01T09:57:01.106Z,23.55
2019-06-01T09:58:01.111Z,23.65
2019-06-01T09:59:01.117Z,23.72
2019-06-01T10:00:01.198Z,23.70
2019-06-01T10:01:01.059Z,23.68
2019-06-01T10:02:01.080Z,23.80
2019-06-01T10:03:01.050Z,23.76
2019-06-01T10:04:01.034Z,23.94
2019-06-01T10:05:01.018Z,24.02
2019-06-01T10:06:15.706Z,24.10
2019-06-01T10:07:01.038Z,24.27
2019-06-01T10:08:34.512Z,24.31
2019-06-01T10:09:02.016Z,24.39
2019-06-01T10:10:01.852Z,24.35
2019-06-01T10:11:01.105Z,24.42
2019-06-01T10:12:00.963Z,24.30
2019-06-01T10:13:00.972Z,24.30
2019-06-01T10:14:03.007Z,24.27
2019-06-01T10:16:03.174Z,24.13
2019-06-01T10:17:00.892Z,24.34
2019-06-01T10:18:00.898Z,24.52
2019-06-01T10:20:02.010Z,24.77
2019-06-01T10:21:00.861Z,24.85
2019-06-01T10:22:00.831Z,24.84
2019-06-01T10:23:00.820Z,25.03
2019-06-01T10:24:00.866Z,25.08
2019-06-01T10:25:00.805Z,25.05
2019-06-01T10:26:00.793Z,25.05
2019-06-01T10:27:00.796Z,25.09
2019-06-01T10:28:00.798Z,24.95
2019-06-01T10:29:00.777Z,24.83
2019-06-01T10:30:00.741Z,24.95
2019-06-01T10:31:00.747Z,24.88
2019-06-01T10:32:00.734Z,24.93
2019-06-01T10:33:00.734Z,25.17
2019-06-01T10:34:00.767Z,25.17
2019-06-01T10:35:00.694Z,25.20
2019-06-01T10:36:18.649Z,25.21
2019-06-01T10:37:01.678Z,25.15
2019-06-01T10:38:00.666Z,25.20
2019-06-01T10:39:00.664Z,25.25
2019-06-01T10:40:00.677Z,25.02
2019-06-01T10:41:00.631Z,25.00
2019-06-01T10:42:00.630Z,24.95
2019-06-01T10:43:00.612Z,25.13
2019-06-01T10:44:00.600Z,25.24
2019-06-01T10:45:00.607Z,25.33
2019-06-01T10:46:00.580Z,25.25
2019-06-01T10:47:00.577Z,25.27
2019-06-01T10:48:00.574Z,25.35
2019-06-01T10:49:00.547Z,25.21
2019-06-01T10:50:00.551Z,25.05
2019-06-01T10:51:00.535Z,25.05
2019-06-01T10:52:00.520Z,25.06
2019-06-01T10:53:00.521Z,25.05
2019-06-01T10:54:00.505Z,25.02
2019-06-01T10:55:00.506Z,25.09
2019-06-01T10:56:00.481Z,25.23
2019-06-01T10:57:00.462Z,25.27
2019-06-01T10:58:00.478Z,25.52
2019-06-01T10:59:00.808Z,25.38
2019-06-01T11:00:00.459Z,25.39
2019-06-01T11:01:00.430Z,25.25
2019-06-01T11:02:00.416Z,25.25
2019-06-01T11:03:00.434Z,25.24
2019-06-01T11:04:00.392Z,25.35
2019-06-01T11:05:00.407Z,25.27
2019-06-01T11:06:00.363Z,25.36
2019-06-01T11:07:00.384Z,25.32
2019-06-01T11:08:00.366Z,25.28
2019-06-01T11:09:00.338Z,25.23
2019-06-01T11:10:00.364Z,25.38
2019-06-01T11:11:00.312Z,25.54
2019-06-01T11:12:00.304Z,26.06
2019-06-01T11:13:00.305Z,26.67
2019-06-01T11:14:00.283Z,27.31
2019-06-01T11:15:00.321Z,27.78
2019-06-01T11:16:00.265Z,27.94
2019-06-01T11:17:00.562Z,28.24
2019-06-01T11:18:00.248Z,28.30
2019-06-01T11:19:00.236Z,28.31
2019-06-01T11:20:00.247Z,28.49
2019-06-01T11:21:00.210Z,28.64
2019-06-01T11:22:00.208Z,28.68
2019-06-01T11:23:00.193Z,29.09
2019-06-01T11:24:00.186Z,29.02
2019-06-01T11:25:00.226Z,29.27
2019-06-01T11:26:00.185Z,29.49
2019-06-01T11:27:00.167Z,29.71
2019-06-01T11:28:00.152Z,29.87
2019-06-01T11:29:00.156Z,30.16
2019-06-01T11:30:00.156Z,30.04
2019-06-01T11:31:00.129Z,30.20
2019-06-01T11:32:00.122Z,30.32
2019-06-01T11:33:00.123Z,30.45
2019-06-01T11:34:00.094Z,30.53
2019-06-01T11:35:00.126Z,30.00
2019-06-01T11:36:00.082Z,29.48
2019-06-01T11:37:05.414Z,30.16
2019-06-01T11:38:01.064Z,30.72
2019-06-01T11:39:00.067Z,30.86
2019-06-01T11:40:00.079Z,30.92
2019-06-01T11:41:00.093Z,31.09
2019-06-01T11:42:00.034Z,30.95
2019-06-01T11:43:00.017Z,30.98
2019-06-01T11:44:00.057Z,31.09
2019-06-01T11:45:00.002Z,30.39
2019-06-01T11:46:00.023Z,29.52
2019-06-01T11:46:59.986Z,28.71
2019-06-01T11:47:59.986Z,28.31
2019-06-01T11:48:59.980Z,27.94
2019-06-01T11:49:59.952Z,28.30
2019-06-01T11:50:59.968Z,28.96
2019-06-01T11:51:59.934Z,28.92
2019-06-01T11:52:59.921Z,29.30
2019-06-01T11:53:59.913Z,29.34
2019-06-01T11:54:59.937Z,29.63
2019-06-01T11:55:59.895Z,29.86
2019-06-01T11:56:59.905Z,29.27
2019-06-01T11:57:59.902Z,29.41
2019-06-01T11:58:59.876Z,29.86
2019-06-01T11:59:59.864Z,30.00
2019-06-01T12:00:59.863Z,29.60
2019-06-01T12:01:59.862Z,29.33
2019-06-01T12:02:59.827Z,29.41
2019-06-01T12:03:59.821Z,30.10
2019-06-01T12:04:59.815Z,30.57
2019-06-01T12:05:59.808Z,30.73
2019-06-01T12:07:16.197Z,30.79
2019-06-01T12:08:00.801Z,30.94
2019-06-01T12:08:59.785Z,30.88
2019-06-01T12:09:59.767Z,31.38
2019-06-01T12:10:59.764Z,31.65
2019-06-01T12:11:59.776Z,31.65
2019-06-01T12:12:59.735Z,31.70
2019-06-01T12:13:59.739Z,32.04
2019-06-01T12:14:59.719Z,32.26
2019-06-01T12:15:59.716Z,32.22
2019-06-01T12:18:00.727Z,32.41
2019-06-01T12:18:59.719Z,32.72
2019-06-01T12:19:59.677Z,32.44
2019-06-01T12:20:59.670Z,32.32
2019-06-01T12:21:59.683Z,32.48
2019-06-01T12:22:59.645Z,32.55
2019-06-01T12:23:59.668Z,32.66
2019-06-01T12:25:00.324Z,32.88
2019-06-01T12:25:59.622Z,33.06
2019-06-01T12:27:00.332Z,32.72
2019-06-01T12:27:59.607Z,32.23
2019-06-01T12:29:00.230Z,31.93
2019-06-01T12:29:59.592Z,32.22
2019-06-01T12:30:59.580Z,32.19
2019-06-01T12:31:59.598Z,32.22
2019-06-01T12:32:59.573Z,32.28
2019-06-01T12:33:59.558Z,32.52
2019-06-01T12:35:03.016Z,32.63
2019-06-01T12:35:59.537Z,32.92
2019-06-01T12:36:59.539Z,33.37
2019-06-01T12:38:05.917Z,33.82
2019-06-01T12:39:00.508Z,34.19
2019-06-01T12:39:59.497Z,34.62
2019-06-01T12:40:59.498Z,34.72
2019-06-01T12:41:59.504Z,35.14
2019-06-01T12:42:59.475Z,35.22
2019-06-01T12:43:59.455Z,34.84
2019-06-01T12:44:59.484Z,34.34
2019-06-01T12:46:07.342Z,33.87
2019-06-01T12:47:01.738Z,33.47
2019-06-01T12:47:59.470Z,33.31
2019-06-01T12:48:59.422Z,32.92
2019-06-01T12:49:59.429Z,32.59
2019-06-01T12:50:59.403Z,32.62
2019-06-01T12:51:59.406Z,32.65
2019-06-01T12:52:59.409Z,32.97
2019-06-01T12:53:59.388Z,32.99
2019-06-01T12:54:59.363Z,32.93